Аэропорт: Емельяново. Красноярск

ICAO: UNKL

METAR:
2022-01-28 09:00:00
UNKL 280900Z 14001MPS 3800 BR NSC M16/M18 Q1032 R11/350145 NOSIG RMK QFE748
METAR:
2022-01-28 07:59:00
TAF UNKL 280759Z 2809/2909 21003MPS 4500 BR FEW007 TEMPO 2809/2812 1400 BR BKN006 BECMG 2812/2814 6000 NSW TEMPO 2821/2904 1400 BR VV002